sensor_id;sensor_type;location;lat;lon;timestamp;temperature;humidity
78708;SHT31;68037;51.978;5.650;2023-07-09T00:00:26;27.9;53.5
78708;SHT31;68037;51.978;5.650;2023-07-09T00:02:56;27.9;53.4
78708;SHT31;68037;51.978;5.650;2023-07-09T00:05:26;27.8;53.5
78708;SHT31;68037;51.978;5.650;2023-07-09T00:07:55;27.8;53.4
78708;SHT31;68037;51.978;5.650;2023-07-09T00:10:28;27.7;53.7
78708;SHT31;68037;51.978;5.650;2023-07-09T00:12:58;27.7;54.0
78708;SHT31;68037;51.978;5.650;2023-07-09T00:15:27;27.7;53.9
78708;SHT31;68037;51.978;5.650;2023-07-09T03:48:10;26.3;56.9
78708;SHT31;68037;51.978;5.650;2023-07-09T03:50:41;26.1;57.3
78708;SHT31;68037;51.978;5.650;2023-07-09T03:53:12;26.1;57.7
78708;SHT31;68037;51.978;5.650;2023-07-09T03:55:44;26.1;57.8
78708;SHT31;68037;51.978;5.650;2023-07-09T03:58:15;26.0;57.9
78708;SHT31;68037;51.978;5.650;2023-07-09T04:00:44;26.0;58.1
78708;SHT31;68037;51.978;5.650;2023-07-09T04:03:14;25.9;58.4
78708;SHT31;68037;51.978;5.650;2023-07-09T04:05:44;25.9;58.5
78708;SHT31;68037;51.978;5.650;2023-07-09T04:08:14;25.8;58.7
78708;SHT31;68037;51.978;5.650;2023-07-09T04:10:44;25.8;58.7
78708;SHT31;68037;51.978;5.650;2023-07-09T04:13:13;25.8;59.1
78708;SHT31;68037;51.978;5.650;2023-07-09T04:15:44;25.7;59.2
78708;SHT31;68037;51.978;5.650;2023-07-09T04:18:14;25.7;59.4
78708;SHT31;68037;51.978;5.650;2023-07-09T04:20:48;25.6;59.3
78708;SHT31;68037;51.978;5.650;2023-07-09T04:23:19;25.6;59.8
78708;SHT31;68037;51.978;5.650;2023-07-09T04:25:49;25.5;60.0
78708;SHT31;68037;51.978;5.650;2023-07-09T04:28:22;25.5;60.5
78708;SHT31;68037;51.978;5.650;2023-07-09T04:30:55;25.5;60.0
78708;SHT31;68037;51.978;5.650;2023-07-09T04:33:25;25.5;60.4
78708;SHT31;68037;51.978;5.650;2023-07-09T04:35:55;25.5;60.6
78708;SHT31;68037;51.978;5.650;2023-07-09T04:38:25;25.5;60.9
78708;SHT31;68037;51.978;5.650;2023-07-09T04:40:55;25.5;61.1
78708;SHT31;68037;51.978;5.650;2023-07-09T04:43:24;25.5;61.2
78708;SHT31;68037;51.978;5.650;2023-07-09T04:45:53;25.5;61.7
78708;SHT31;68037;51.978;5.650;2023-07-09T04:48:23;25.4;61.8
78708;SHT31;68037;51.978;5.650;2023-07-09T04:50:53;25.4;62.0
78708;SHT31;68037;51.978;5.650;2023-07-09T04:53:23;25.4;61.7
78708;SHT31;68037;51.978;5.650;2023-07-09T04:55:52;25.4;61.6
78708;SHT31;68037;51.978;5.650;2023-07-09T04:58:23;25.4;62.1
78708;SHT31;68037;51.978;5.650;2023-07-09T05:00:56;25.4;62.2
78708;SHT31;68037;51.978;5.650;2023-07-09T05:03:27;25.4;62.5
78708;SHT31;68037;51.978;5.650;2023-07-09T05:05:56;25.4;62.7
78708;SHT31;68037;51.978;5.650;2023-07-09T05:08:26;25.4;63.0
78708;SHT31;68037;51.978;5.650;2023-07-09T05:10:56;25.4;62.9
78708;SHT31;68037;51.978;5.650;2023-07-09T05:13:26;25.4;63.1
78708;SHT31;68037;51.978;5.650;2023-07-09T05:15:56;25.4;63.4
78708;SHT31;68037;51.978;5.650;2023-07-09T05:18:26;25.4;63.7
78708;SHT31;68037;51.978;5.650;2023-07-09T05:20:57;25.5;63.5
78708;SHT31;68037;51.978;5.650;2023-07-09T05:23:28;25.6;63.1
78708;SHT31;68037;51.978;5.650;2023-07-09T05:26:00;25.6;62.3
78708;SHT31;68037;51.978;5.650;2023-07-09T05:28:30;25.6;61.6
78708;SHT31;68037;51.978;5.650;2023-07-09T05:31:01;25.6;61.0
78708;SHT31;68037;51.978;5.650;2023-07-09T05:33:31;25.6;60.6
78708;SHT31;68037;51.978;5.650;2023-07-09T05:36:01;25.6;61.3
78708;SHT31;68037;51.978;5.650;2023-07-09T05:38:31;25.7;60.8
78708;SHT31;68037;51.978;5.650;2023-07-09T05:41:03;25.7;61.0
78708;SHT31;68037;51.978;5.650;2023-07-09T05:43:33;25.7;60.2
78708;SHT31;68037;51.978;5.650;2023-07-09T05:46:05;25.7;60.6
78708;SHT31;68037;51.978;5.650;2023-07-09T05:48:35;25.8;60.4
78708;SHT31;68037;51.978;5.650;2023-07-09T05:51:04;25.8;60.1
78708;SHT31;68037;51.978;5.650;2023-07-09T05:53:34;25.8;59.9
78708;SHT31;68037;51.978;5.650;2023-07-09T05:56:06;25.8;60.5
78708;SHT31;68037;51.978;5.650;2023-07-09T05:58:37;25.9;60.6
78708;SHT31;68037;51.978;5.650;2023-07-09T06:01:08;25.9;60.0
78708;SHT31;68037;51.978;5.650;2023-07-09T06:03:38;25.9;60.4
78708;SHT31;68037;51.978;5.650;2023-07-09T06:06:15;26.0;60.5
78708;SHT31;68037;51.978;5.650;2023-07-09T06:08:48;26.1;59.5
78708;SHT31;68037;51.978;5.650;2023-07-09T06:11:17;26.1;59.2
78708;SHT31;68037;51.978;5.650;2023-07-09T06:13:47;26.2;58.4
78708;SHT31;68037;51.978;5.650;2023-07-09T06:16:17;26.2;58.3
78708;SHT31;68037;51.978;5.650;2023-07-09T06:18:47;26.3;58.7
78708;SHT31;68037;51.978;5.650;2023-07-09T06:21:16;26.3;58.3
78708;SHT31;68037;51.978;5.650;2023-07-09T06:23:46;26.3;58.5
78708;SHT31;68037;51.978;5.650;2023-07-09T06:26:16;26.3;58.5
78708;SHT31;68037;51.978;5.650;2023-07-09T06:28:47;26.4;59.0
78708;SHT31;68037;51.978;5.650;2023-07-09T06:31:16;26.4;59.3
78708;SHT31;68037;51.978;5.650;2023-07-09T06:33:48;26.4;59.4
78708;SHT31;68037;51.978;5.650;2023-07-09T06:36:19;26.4;59.7
78708;SHT31;68037;51.978;5.650;2023-07-09T06:38:48;26.5;59.8
78708;SHT31;68037;51.978;5.650;2023-07-09T06:41:18;26.5;60.0
78708;SHT31;68037;51.978;5.650;2023-07-09T06:43:48;26.5;60.3
78708;SHT31;68037;51.978;5.650;2023-07-09T06:46:21;26.5;60.4
78708;SHT31;68037;51.978;5.650;2023-07-09T06:48:50;26.6;61.2
78708;SHT31;68037;51.978;5.650;2023-07-09T06:51:22;26.6;61.1
78708;SHT31;68037;51.978;5.650;2023-07-09T06:53:51;26.7;61.3
78708;SHT31;68037;51.978;5.650;2023-07-09T06:56:21;26.7;61.5
78708;SHT31;68037;51.978;5.650;2023-07-09T06:58:51;26.9;61.0
78708;SHT31;68037;51.978;5.650;2023-07-09T07:01:20;27.0;60.9
78708;SHT31;68037;51.978;5.650;2023-07-09T07:03:50;27.0;60.8
78708;SHT31;68037;51.978;5.650;2023-07-09T07:06:19;27.1;59.5
78708;SHT31;68037;51.978;5.650;2023-07-09T07:08:49;27.1;59.5
78708;SHT31;68037;51.978;5.650;2023-07-09T07:11:19;27.2;59.6
78708;SHT31;68037;51.978;5.650;2023-07-09T07:13:49;27.3;59.7
78708;SHT31;68037;51.978;5.650;2023-07-09T07:16:20;27.3;59.1
78708;SHT31;68037;51.978;5.650;2023-07-09T07:18:49;27.4;59.5
78708;SHT31;68037;51.978;5.650;2023-07-09T07:21:19;27.4;58.4
78708;SHT31;68037;51.978;5.650;2023-07-09T07:23:48;27.5;58.9
78708;SHT31;68037;51.978;5.650;2023-07-09T07:26:18;27.5;58.9
78708;SHT31;68037;51.978;5.650;2023-07-09T07:28:50;27.6;58.8
78708;SHT31;68037;51.978;5.650;2023-07-09T08:39:18;31.0;51.1
78708;SHT31;68037;51.978;5.650;2023-07-09T08:41:54;30.9;51.8
78708;SHT31;68037;51.978;5.650;2023-07-09T08:45:02;30.9;51.2
78708;SHT31;68037;51.978;5.650;2023-07-09T08:47:42;30.9;51.5
78708;SHT31;68037;51.978;5.650;2023-07-09T08:50:19;30.9;51.0
78708;SHT31;68037;51.978;5.650;2023-07-09T08:52:59;30.9;52.0
78708;SHT31;68037;51.978;5.650;2023-07-09T08:55:31;30.8;52.4
78708;SHT31;68037;51.978;5.650;2023-07-09T08:58:12;30.8;51.7
78708;SHT31;68037;51.978;5.650;2023-07-09T09:00:49;30.8;52.4
78708;SHT31;68037;51.978;5.650;2023-07-09T09:03:34;30.8;50.9
78708;SHT31;68037;51.978;5.650;2023-07-09T09:06:11;30.9;51.8
78708;SHT31;68037;51.978;5.650;2023-07-09T09:08:58;30.9;52.1
78708;SHT31;68037;51.978;5.650;2023-07-09T09:11:41;30.9;52.8
78708;SHT31;68037;51.978;5.650;2023-07-09T09:14:28;30.9;51.4
78708;SHT31;68037;51.978;5.650;2023-07-09T09:17:00;30.9;51.4
78708;SHT31;68037;51.978;5.650;2023-07-09T09:19:33;31.0;51.7
78708;SHT31;68037;51.978;5.650;2023-07-09T09:22:08;31.0;51.3
78708;SHT31;68037;51.978;5.650;2023-07-09T09:24:50;31.0;52.0
78708;SHT31;68037;51.978;5.650;2023-07-09T09:27:24;31.1;52.2
78708;SHT31;68037;51.978;5.650;2023-07-09T09:29:55;31.2;51.5
78708;SHT31;68037;51.978;5.650;2023-07-09T09:32:28;31.3;51.9
78708;SHT31;68037;51.978;5.650;2023-07-09T09:34:58;31.4;50.5
78708;SHT31;68037;51.978;5.650;2023-07-09T09:37:30;31.4;50.3
78708;SHT31;68037;51.978;5.650;2023-07-09T09:40:01;31.5;49.1
78708;SHT31;68037;51.978;5.650;2023-07-09T09:42:31;31.6;50.3
78708;SHT31;68037;51.978;5.650;2023-07-09T09:45:02;31.6;49.3
78708;SHT31;68037;51.978;5.650;2023-07-09T09:47:32;31.7;48.1
78708;SHT31;68037;51.978;5.650;2023-07-09T09:50:02;31.8;48.1
78708;SHT31;68037;51.978;5.650;2023-07-09T09:52:32;31.8;48.7
78708;SHT31;68037;51.978;5.650;2023-07-09T09:55:12;31.9;48.5
78708;SHT31;68037;51.978;5.650;2023-07-09T09:57:49;32.0;47.2
78708;SHT31;68037;51.978;5.650;2023-07-09T10:00:23;32.0;46.5
78708;SHT31;68037;51.978;5.650;2023-07-09T10:02:56;32.1;48.0
78708;SHT31;68037;51.978;5.650;2023-07-09T10:05:32;32.1;47.0
78708;SHT31;68037;51.978;5.650;2023-07-09T10:08:08;32.2;47.7
78708;SHT31;68037;51.978;5.650;2023-07-09T10:10:44;32.3;47.1
78708;SHT31;68037;51.978;5.650;2023-07-09T10:13:26;32.3;44.4
78708;SHT31;68037;51.978;5.650;2023-07-09T10:16:09;32.4;43.8
78708;SHT31;68037;51.978;5.650;2023-07-09T10:18:50;32.5;45.4
78708;SHT31;68037;51.978;5.650;2023-07-09T10:21:27;32.6;43.2
78708;SHT31;68037;51.978;5.650;2023-07-09T10:24:09;32.7;44.9
78708;SHT31;68037;51.978;5.650;2023-07-09T10:26:47;32.8;43.7
78708;SHT31;68037;51.978;5.650;2023-07-09T10:29:45;32.8;44.9
78708;SHT31;68037;51.978;5.650;2023-07-09T10:32:30;32.9;45.5
78708;SHT31;68037;51.978;5.650;2023-07-09T10:35:07;33.0;44.7
78708;SHT31;68037;51.978;5.650;2023-07-09T10:38:10;33.1;44.3
78708;SHT31;68037;51.978;5.650;2023-07-09T10:40:46;33.1;43.7
78708;SHT31;68037;51.978;5.650;2023-07-09T10:43:22;33.2;44.0
78708;SHT31;68037;51.978;5.650;2023-07-09T10:45:57;33.3;43.2
78708;SHT31;68037;51.978;5.650;2023-07-09T10:48:35;33.3;43.5
78708;SHT31;68037;51.978;5.650;2023-07-09T10:51:16;33.4;43.1
78708;SHT31;68037;51.978;5.650;2023-07-09T10:53:50;33.5;41.4
78708;SHT31;68037;51.978;5.650;2023-07-09T10:56:23;33.6;42.1
78708;SHT31;68037;51.978;5.650;2023-07-09T10:59:00;33.7;40.1
78708;SHT31;68037;51.978;5.650;2023-07-09T11:01:37;33.7;40.5
78708;SHT31;68037;51.978;5.650;2023-07-09T11:04:20;33.8;39.3
78708;SHT31;68037;51.978;5.650;2023-07-09T11:07:00;33.9;39.4
78708;SHT31;68037;51.978;5.650;2023-07-09T11:09:33;34.0;37.8
78708;SHT31;68037;51.978;5.650;2023-07-09T11:12:08;34.0;39.4
78708;SHT31;68037;51.978;5.650;2023-07-09T11:14:45;34.0;39.0
78708;SHT31;68037;51.978;5.650;2023-07-09T11:17:18;34.1;39.9
78708;SHT31;68037;51.978;5.650;2023-07-09T11:19:56;34.1;38.8
78708;SHT31;68037;51.978;5.650;2023-07-09T11:22:35;34.2;39.5
78708;SHT31;68037;51.978;5.650;2023-07-09T11:25:08;34.2;39.5
78708;SHT31;68037;51.978;5.650;2023-07-09T11:27:50;34.3;38.7
78708;SHT31;68037;51.978;5.650;2023-07-09T11:30:23;34.3;38.6
78708;SHT31;68037;51.978;5.650;2023-07-09T11:32:57;34.4;38.1
78708;SHT31;68037;51.978;5.650;2023-07-09T11:35:29;34.4;38.0
78708;SHT31;68037;51.978;5.650;2023-07-09T11:38:12;34.5;39.5
78708;SHT31;68037;51.978;5.650;2023-07-09T11:40:48;34.5;37.5
78708;SHT31;68037;51.978;5.650;2023-07-09T11:43:33;34.6;38.0
78708;SHT31;68037;51.978;5.650;2023-07-09T11:46:11;34.7;38.5
78708;SHT31;68037;51.978;5.650;2023-07-09T11:48:44;34.7;38.2
78708;SHT31;68037;51.978;5.650;2023-07-09T11:51:19;34.8;37.7
78708;SHT31;68037;51.978;5.650;2023-07-09T11:53:52;34.8;37.4
78708;SHT31;68037;51.978;5.650;2023-07-09T11:56:24;34.9;38.6
78708;SHT31;68037;51.978;5.650;2023-07-09T11:59:03;35.0;38.1
78708;SHT31;68037;51.978;5.650;2023-07-09T12:01:36;35.0;37.9
78708;SHT31;68037;51.978;5.650;2023-07-09T12:04:13;35.0;37.5
78708;SHT31;68037;51.978;5.650;2023-07-09T12:06:44;35.0;37.0
78708;SHT31;68037;51.978;5.650;2023-07-09T12:09:17;35.1;37.7
78708;SHT31;68037;51.978;5.650;2023-07-09T12:11:50;35.1;38.2
78708;SHT31;68037;51.978;5.650;2023-07-09T12:14:22;35.1;38.7
78708;SHT31;68037;51.978;5.650;2023-07-09T12:16:53;35.1;37.8
78708;SHT31;68037;51.978;5.650;2023-07-09T12:19:24;35.1;37.4
78708;SHT31;68037;51.978;5.650;2023-07-09T12:21:59;35.1;37.7
78708;SHT31;68037;51.978;5.650;2023-07-09T12:24:35;35.1;38.5
78708;SHT31;68037;51.978;5.650;2023-07-09T12:27:18;35.1;39.6
78708;SHT31;68037;51.978;5.650;2023-07-09T12:29:54;35.1;39.6
78708;SHT31;68037;51.978;5.650;2023-07-09T12:32:24;35.1;40.4
78708;SHT31;68037;51.978;5.650;2023-07-09T12:34:56;35.1;40.8
78708;SHT31;68037;51.978;5.650;2023-07-09T12:37:31;35.1;40.5
78708;SHT31;68037;51.978;5.650;2023-07-09T12:40:03;35.0;40.9
78708;SHT31;68037;51.978;5.650;2023-07-09T12:42:35;35.0;40.7
78708;SHT31;68037;51.978;5.650;2023-07-09T12:45:16;35.0;40.4
78708;SHT31;68037;51.978;5.650;2023-07-09T12:47:47;35.0;40.7
78708;SHT31;68037;51.978;5.650;2023-07-09T12:50:30;35.0;40.8
78708;SHT31;68037;51.978;5.650;2023-07-09T12:53:03;35.0;41.8
78708;SHT31;68037;51.978;5.650;2023-07-09T12:55:41;35.0;41.3
78708;SHT31;68037;51.978;5.650;2023-07-09T12:58:19;35.0;41.3
78708;SHT31;68037;51.978;5.650;2023-07-09T13:00:51;35.0;41.2
78708;SHT31;68037;51.978;5.650;2023-07-09T13:03:25;35.0;41.5
78708;SHT31;68037;51.978;5.650;2023-07-09T13:05:58;35.0;40.2
78708;SHT31;68037;51.978;5.650;2023-07-09T13:08:30;35.1;41.1
78708;SHT31;68037;51.978;5.650;2023-07-09T13:11:00;35.1;41.3
78708;SHT31;68037;51.978;5.650;2023-07-09T13:13:30;35.1;41.3
78708;SHT31;68037;51.978;5.650;2023-07-09T13:16:01;35.1;41.3
78708;SHT31;68037;51.978;5.650;2023-07-09T13:18:31;35.1;42.0
78708;SHT31;68037;51.978;5.650;2023-07-09T13:21:10;35.1;42.0
78708;SHT31;68037;51.978;5.650;2023-07-09T13:23:43;35.0;42.4
78708;SHT31;68037;51.978;5.650;2023-07-09T13:26:15;35.0;43.3
78708;SHT31;68037;51.978;5.650;2023-07-09T13:28:45;35.0;44.0
78708;SHT31;68037;51.978;5.650;2023-07-09T13:31:19;34.9;44.5
78708;SHT31;68037;51.978;5.650;2023-07-09T13:33:53;34.9;45.2
78708;SHT31;68037;51.978;5.650;2023-07-09T13:36:23;34.8;45.2
78708;SHT31;68037;51.978;5.650;2023-07-09T13:38:55;34.8;44.7
78708;SHT31;68037;51.978;5.650;2023-07-09T13:41:26;34.7;44.7
78708;SHT31;68037;51.978;5.650;2023-07-09T13:43:55;34.7;43.8
78708;SHT31;68037;51.978;5.650;2023-07-09T13:46:28;34.5;43.2
78708;SHT31;68037;51.978;5.650;2023-07-09T13:48:57;34.4;43.5
78708;SHT31;68037;51.978;5.650;2023-07-09T13:51:33;34.3;43.7
78708;SHT31;68037;51.978;5.650;2023-07-09T13:54:09;34.2;42.1
78708;SHT31;68037;51.978;5.650;2023-07-09T13:56:41;34.0;41.0
78708;SHT31;68037;51.978;5.650;2023-07-09T13:59:17;33.8;41.6
78708;SHT31;68037;51.978;5.650;2023-07-09T14:01:51;33.7;41.7
78708;SHT31;68037;51.978;5.650;2023-07-09T14:04:22;33.5;41.6
78708;SHT31;68037;51.978;5.650;2023-07-09T14:06:54;33.3;41.9
78708;SHT31;68037;51.978;5.650;2023-07-09T14:09:23;33.2;42.7
78708;SHT31;68037;51.978;5.650;2023-07-09T14:11:53;33.0;43.0
78708;SHT31;68037;51.978;5.650;2023-07-09T14:14:25;32.9;42.9
78708;SHT31;68037;51.978;5.650;2023-07-09T14:16:58;32.9;43.4
78708;SHT31;68037;51.978;5.650;2023-07-09T14:19:28;32.8;43.4
78708;SHT31;68037;51.978;5.650;2023-07-09T14:22:01;32.7;43.5
78708;SHT31;68037;51.978;5.650;2023-07-09T14:24:30;32.7;42.6
78708;SHT31;68037;51.978;5.650;2023-07-09T14:27:00;32.6;42.6
78708;SHT31;68037;51.978;5.650;2023-07-09T14:29:29;32.6;42.4
78708;SHT31;68037;51.978;5.650;2023-07-09T14:32:00;32.5;41.9
78708;SHT31;68037;51.978;5.650;2023-07-09T14:34:32;32.4;42.0
78708;SHT31;68037;51.978;5.650;2023-07-09T14:37:07;32.2;42.8
78708;SHT31;68037;51.978;5.650;2023-07-09T14:39:38;32.1;43.9
78708;SHT31;68037;51.978;5.650;2023-07-09T14:42:11;31.9;44.5
78708;SHT31;68037;51.978;5.650;2023-07-09T14:44:43;31.7;45.6
78708;SHT31;68037;51.978;5.650;2023-07-09T14:47:16;31.5;46.7
78708;SHT31;68037;51.978;5.650;2023-07-09T14:49:46;30.9;48.9
78708;SHT31;68037;51.978;5.650;2023-07-09T14:52:20;29.5;53.0
78708;SHT31;68037;51.978;5.650;2023-07-09T14:54:50;28.6;58.2
78708;SHT31;68037;51.978;5.650;2023-07-09T14:57:23;27.9;62.2
78708;SHT31;68037;51.978;5.650;2023-07-09T14:59:53;27.2;64.7
78708;SHT31;68037;51.978;5.650;2023-07-09T15:02:32;26.9;67.2
78708;SHT31;68037;51.978;5.650;2023-07-09T15:05:04;26.6;67.2
78708;SHT31;68037;51.978;5.650;2023-07-09T15:07:34;26.4;68.0
78708;SHT31;68037;51.978;5.650;2023-07-09T15:10:04;26.3;68.1
78708;SHT31;68037;51.978;5.650;2023-07-09T15:12:35;26.2;67.5
78708;SHT31;68037;51.978;5.650;2023-07-09T15:15:13;26.2;67.9
78708;SHT31;68037;51.978;5.650;2023-07-09T15:17:46;26.2;68.0
78708;SHT31;68037;51.978;5.650;2023-07-09T15:20:19;26.2;68.3
78708;SHT31;68037;51.978;5.650;2023-07-09T15:22:50;26.3;68.7
78708;SHT31;68037;51.978;5.650;2023-07-09T15:25:22;26.3;68.5
78708;SHT31;68037;51.978;5.650;2023-07-09T15:27:52;26.4;67.5
78708;SHT31;68037;51.978;5.650;2023-07-09T15:30:26;26.5;67.5
78708;SHT31;68037;51.978;5.650;2023-07-09T15:32:58;26.6;67.9
78708;SHT31;68037;51.978;5.650;2023-07-09T15:35:32;26.7;66.9
78708;SHT31;68037;51.978;5.650;2023-07-09T15:38:08;26.9;67.0
78708;SHT31;68037;51.978;5.650;2023-07-09T15:40:41;27.0;66.4
78708;SHT31;68037;51.978;5.650;2023-07-09T15:43:11;27.1;65.1
78708;SHT31;68037;51.978;5.650;2023-07-09T15:45:43;27.1;65.2
78708;SHT31;68037;51.978;5.650;2023-07-09T15:48:23;27.2;65.4
78708;SHT31;68037;51.978;5.650;2023-07-09T15:50:54;27.3;65.3
78708;SHT31;68037;51.978;5.650;2023-07-09T15:53:25;27.4;64.2
78708;SHT31;68037;51.978;5.650;2023-07-09T15:55:58;27.4;64.2
78708;SHT31;68037;51.978;5.650;2023-07-09T15:58:38;27.5;63.0
78708;SHT31;68037;51.978;5.650;2023-07-09T16:01:07;27.6;63.3
78708;SHT31;68037;51.978;5.650;2023-07-09T16:03:38;27.6;62.3
78708;SHT31;68037;51.978;5.650;2023-07-09T16:06:11;27.7;61.3
78708;SHT31;68037;51.978;5.650;2023-07-09T16:08:41;27.8;61.4
78708;SHT31;68037;51.978;5.650;2023-07-09T16:11:15;27.8;61.3
78708;SHT31;68037;51.978;5.650;2023-07-09T16:13:46;27.9;62.3
78708;SHT31;68037;51.978;5.650;2023-07-09T16:16:18;27.9;62.7
78708;SHT31;68037;51.978;5.650;2023-07-09T16:18:49;27.9;61.9
78708;SHT31;68037;51.978;5.650;2023-07-09T16:21:24;28.0;62.1
78708;SHT31;68037;51.978;5.650;2023-07-09T16:23:55;28.0;61.8
78708;SHT31;68037;51.978;5.650;2023-07-09T16:26:26;28.0;62.5
78708;SHT31;68037;51.978;5.650;2023-07-09T16:28:56;28.1;61.7
78708;SHT31;68037;51.978;5.650;2023-07-09T16:31:26;28.1;60.7
78708;SHT31;68037;51.978;5.650;2023-07-09T16:33:55;28.1;60.4
78708;SHT31;68037;51.978;5.650;2023-07-09T16:36:24;28.1;61.0
78708;SHT31;68037;51.978;5.650;2023-07-09T16:38:54;28.1;60.3
78708;SHT31;68037;51.978;5.650;2023-07-09T16:41:24;28.1;61.0
78708;SHT31;68037;51.978;5.650;2023-07-09T16:43:54;28.2;60.4
78708;SHT31;68037;51.978;5.650;2023-07-09T16:46:24;28.4;59.8
78708;SHT31;68037;51.978;5.650;2023-07-09T16:48:54;28.5;59.3
78708;SHT31;68037;51.978;5.650;2023-07-09T16:51:23;28.6;59.5
78708;SHT31;68037;51.978;5.650;2023-07-09T16:53:53;28.7;58.0
78708;SHT31;68037;51.978;5.650;2023-07-09T16:56:25;28.7;57.1
78708;SHT31;68037;51.978;5.650;2023-07-09T16:58:54;28.8;57.0
78708;SHT31;68037;51.978;5.650;2023-07-09T17:01:24;28.9;57.1
78708;SHT31;68037;51.978;5.650;2023-07-09T17:03:54;28.9;57.4
78708;SHT31;68037;51.978;5.650;2023-07-09T17:06:25;28.9;56.8
78708;SHT31;68037;51.978;5.650;2023-07-09T17:08:55;29.0;56.5
78708;SHT31;68037;51.978;5.650;2023-07-09T17:11:26;29.0;56.4
78708;SHT31;68037;51.978;5.650;2023-07-09T17:13:55;29.0;55.5
78708;SHT31;68037;51.978;5.650;2023-07-09T17:16:25;29.0;55.3
78708;SHT31;68037;51.978;5.650;2023-07-09T17:18:54;29.0;55.2
78708;SHT31;68037;51.978;5.650;2023-07-09T17:21:26;29.0;55.2
78708;SHT31;68037;51.978;5.650;2023-07-09T17:23:55;29.0;55.0
78708;SHT31;68037;51.978;5.650;2023-07-09T17:26:25;28.9;55.3
78708;SHT31;68037;51.978;5.650;2023-07-09T17:28:54;28.9;55.0
78708;SHT31;68037;51.978;5.650;2023-07-09T17:31:24;28.9;54.9
78708;SHT31;68037;51.978;5.650;2023-07-09T17:33:53;28.8;54.9
78708;SHT31;68037;51.978;5.650;2023-07-09T17:36:23;28.8;55.9
78708;SHT31;68037;51.978;5.650;2023-07-09T17:38:53;28.8;55.5
78708;SHT31;68037;51.978;5.650;2023-07-09T17:41:22;28.7;55.0
78708;SHT31;68037;51.978;5.650;2023-07-09T17:43:52;28.7;55.0
78708;SHT31;68037;51.978;5.650;2023-07-09T17:46:23;28.6;54.9
78708;SHT31;68037;51.978;5.650;2023-07-09T17:48:53;28.5;54.9
78708;SHT31;68037;51.978;5.650;2023-07-09T17:51:22;28.5;54.9
78708;SHT31;68037;51.978;5.650;2023-07-09T17:53:52;28.4;55.7
78708;SHT31;68037;51.978;5.650;2023-07-09T17:56:22;28.3;55.6
78708;SHT31;68037;51.978;5.650;2023-07-09T17:58:57;28.3;56.2
78708;SHT31;68037;51.978;5.650;2023-07-09T18:01:28;28.2;56.2
78708;SHT31;68037;51.978;5.650;2023-07-09T18:03:57;28.2;56.2
78708;SHT31;68037;51.978;5.650;2023-07-09T18:06:27;28.1;56.7
78708;SHT31;68037;51.978;5.650;2023-07-09T18:08:57;28.1;56.1
78708;SHT31;68037;51.978;5.650;2023-07-09T18:11:28;28.0;55.9
78708;SHT31;68037;51.978;5.650;2023-07-09T18:14:03;28.0;56.5
78708;SHT31;68037;51.978;5.650;2023-07-09T18:16:33;28.0;55.9
78708;SHT31;68037;51.978;5.650;2023-07-09T18:19:02;27.9;55.8
78708;SHT31;68037;51.978;5.650;2023-07-09T18:21:32;27.9;55.8
78708;SHT31;68037;51.978;5.650;2023-07-09T18:24:03;27.8;56.3
78708;SHT31;68037;51.978;5.650;2023-07-09T18:26:33;27.8;56.4
78708;SHT31;68037;51.978;5.650;2023-07-09T18:29:05;27.7;56.4
78708;SHT31;68037;51.978;5.650;2023-07-09T18:31:36;27.7;57.1
78708;SHT31;68037;51.978;5.650;2023-07-09T18:34:09;27.6;57.0
78708;SHT31;68037;51.978;5.650;2023-07-09T18:36:39;27.6;56.7
78708;SHT31;68037;51.978;5.650;2023-07-09T18:39:08;27.7;56.5
78708;SHT31;68037;51.978;5.650;2023-07-09T18:41:38;27.6;56.7
78708;SHT31;68037;51.978;5.650;2023-07-09T18:44:19;27.6;56.5
78708;SHT31;68037;51.978;5.650;2023-07-09T18:46:50;27.6;57.0
78708;SHT31;68037;51.978;5.650;2023-07-09T18:49:22;27.5;57.2
78708;SHT31;68037;51.978;5.650;2023-07-09T18:51:52;27.5;57.7
78708;SHT31;68037;51.978;5.650;2023-07-09T18:54:21;27.5;56.9
78708;SHT31;68037;51.978;5.650;2023-07-09T18:56:51;27.4;57.4
78708;SHT31;68037;51.978;5.650;2023-07-09T18:59:21;27.4;57.8
78708;SHT31;68037;51.978;5.650;2023-07-09T19:01:52;27.4;57.5
78708;SHT31;68037;51.978;5.650;2023-07-09T19:04:26;27.4;57.3
78708;SHT31;68037;51.978;5.650;2023-07-09T19:06:58;27.3;57.4
78708;SHT31;68037;51.978;5.650;2023-07-09T19:09:29;27.3;57.3
78708;SHT31;68037;51.978;5.650;2023-07-09T19:11:59;27.3;57.3
78708;SHT31;68037;51.978;5.650;2023-07-09T19:14:32;27.2;57.6
78708;SHT31;68037;51.978;5.650;2023-07-09T19:17:06;27.2;57.5
78708;SHT31;68037;51.978;5.650;2023-07-09T19:19:38;27.2;57.7
78708;SHT31;68037;51.978;5.650;2023-07-09T19:22:11;27.1;57.8
78708;SHT31;68037;51.978;5.650;2023-07-09T19:24:42;27.1;57.9
78708;SHT31;68037;51.978;5.650;2023-07-09T19:27:13;27.0;57.7
78708;SHT31;68037;51.978;5.650;2023-07-09T19:29:45;27.0;58.3
78708;SHT31;68037;51.978;5.650;2023-07-09T19:32:25;27.0;58.4
78708;SHT31;68037;51.978;5.650;2023-07-09T19:34:56;26.9;58.2
78708;SHT31;68037;51.978;5.650;2023-07-09T19:37:26;26.9;57.6
78708;SHT31;68037;51.978;5.650;2023-07-09T19:39:56;26.8;57.8
